createdAt,value
2022-08-24T00:00:39.387Z,2.00
2022-08-24T00:03:42.234Z,2.28
2022-08-24T00:06:44.056Z,1.92
2022-08-24T00:09:49.469Z,2.30
2022-08-24T00:12:52.468Z,1.92
2022-08-24T00:15:55.241Z,2.00
2022-08-24T00:18:56.983Z,2.08
2022-08-24T00:22:00.253Z,1.67
2022-08-24T00:25:02.620Z,1.80
2022-08-24T00:28:05.797Z,1.75
2022-08-24T00:31:08.290Z,2.10
2022-08-24T00:34:10.879Z,2.25
2022-08-24T00:37:12.672Z,1.85
2022-08-24T00:40:20.071Z,2.30
2022-08-24T00:43:25.673Z,2.60
2022-08-24T00:46:36.779Z,2.40
2022-08-24T00:49:58.448Z,2.20
2022-08-24T00:53:04.357Z,2.72
2022-08-24T00:56:15.824Z,2.33
2022-08-24T00:59:41.890Z,2.85
2022-08-24T01:02:48.287Z,2.80
2022-08-24T01:05:50.252Z,2.55
2022-08-24T01:08:56.706Z,2.65
2022-08-24T01:11:59.671Z,2.55
2022-08-24T01:15:03.502Z,2.60
2022-08-24T01:18:26.822Z,3.08
2022-08-24T01:21:40.601Z,2.63
2022-08-24T01:24:43.445Z,2.42
2022-08-24T01:27:46.329Z,2.33
2022-08-24T01:30:48.888Z,2.60
2022-08-24T01:33:53.386Z,2.70
2022-08-24T01:36:57.988Z,2.63
2022-08-24T01:40:03.495Z,2.40
2022-08-24T01:43:07.053Z,1.95
2022-08-24T01:46:09.460Z,1.92
2022-08-24T01:49:11.870Z,2.15
2022-08-24T01:52:18.309Z,2.45
2022-08-24T01:55:22.414Z,2.28
2022-08-24T01:58:24.960Z,2.38
2022-08-24T02:01:29.783Z,2.22
2022-08-24T02:04:34.447Z,2.25
2022-08-24T02:07:36.404Z,2.70
2022-08-24T02:10:38.163Z,2.30
2022-08-24T02:13:42.361Z,2.42
2022-08-24T02:16:44.127Z,2.88
2022-08-24T02:19:46.131Z,2.40
2022-08-24T02:22:49.607Z,2.50
2022-08-24T02:25:52.357Z,2.35
2022-08-24T02:28:54.439Z,2.50
2022-08-24T02:31:57.786Z,1.95
2022-08-24T02:34:59.562Z,2.10
2022-08-24T02:38:01.353Z,2.40
2022-08-24T02:41:05.703Z,2.60
2022-08-24T02:44:07.484Z,2.97
2022-08-24T02:47:10.217Z,2.78
2022-08-24T02:50:15.068Z,2.42
2022-08-24T02:53:18.690Z,2.20
2022-08-24T02:56:23.156Z,2.95
2022-08-24T02:59:25.587Z,2.25
2022-08-24T03:02:28.013Z,2.67
2022-08-24T03:05:30.115Z,2.00
2022-08-24T03:08:32.171Z,2.25
2022-08-24T03:11:37.524Z,2.38
2022-08-24T03:14:41.514Z,2.40
2022-08-24T03:17:44.207Z,2.28
2022-08-24T03:20:45.935Z,2.75
2022-08-24T03:23:47.709Z,2.65
2022-08-24T03:26:49.553Z,2.70
2022-08-24T03:29:51.303Z,2.70
2022-08-24T03:32:53.201Z,2.55
2022-08-24T03:35:55.268Z,2.83
2022-08-24T03:38:57.985Z,2.78
2022-08-24T03:41:59.745Z,2.78
2022-08-24T03:45:01.516Z,2.80
2022-08-24T03:48:03.572Z,2.97
2022-08-24T03:51:10.358Z,3.63
2022-08-24T03:54:13.851Z,2.50
2022-08-24T03:57:15.860Z,2.90
2022-08-24T04:00:18.498Z,2.60
2022-08-24T04:03:29.217Z,3.00
2022-08-24T04:06:34.721Z,2.90
2022-08-24T04:09:36.620Z,3.00
2022-08-24T04:12:38.331Z,2.65
2022-08-24T04:15:42.210Z,2.70
2022-08-24T04:18:44.960Z,3.00
2022-08-24T04:21:47.125Z,2.78
2022-08-24T04:24:49.528Z,3.72
2022-08-24T04:27:51.247Z,2.78
2022-08-24T04:30:52.978Z,2.33
2022-08-24T04:34:05.299Z,2.95
2022-08-24T04:37:11.224Z,3.42
2022-08-24T04:40:13.671Z,3.37
2022-08-24T04:43:21.151Z,3.00
2022-08-24T04:46:23.588Z,3.60
2022-08-24T04:49:25.385Z,3.22
2022-08-24T04:52:28.509Z,3.28
2022-08-24T04:55:30.518Z,3.22
2022-08-24T04:58:32.564Z,3.20
2022-08-24T05:01:34.935Z,3.17
2022-08-24T05:04:39.751Z,2.85
2022-08-24T05:07:44.861Z,3.00
2022-08-24T05:10:48.851Z,3.30
2022-08-24T05:13:55.347Z,3.30
2022-08-24T05:16:57.193Z,3.33
2022-08-24T05:19:59.461Z,3.05
2022-08-24T05:23:04.540Z,3.30
2022-08-24T05:26:20.352Z,3.30
2022-08-24T05:29:22.769Z,3.55
2022-08-24T05:32:26.252Z,2.88
2022-08-24T05:35:29.575Z,3.47
2022-08-24T05:38:33.435Z,3.33
2022-08-24T05:41:35.997Z,3.50
2022-08-24T05:44:45.525Z,3.58
2022-08-24T05:47:47.268Z,3.20
2022-08-24T05:51:11.308Z,3.60
2022-08-24T05:54:26.880Z,3.78
2022-08-24T05:57:34.136Z,4.03
2022-08-24T06:00:58.721Z,3.40
2022-08-24T06:04:01.136Z,4.10
2022-08-24T06:07:03.191Z,3.95
2022-08-24T06:10:26.299Z,4.18
2022-08-24T06:13:28.397Z,4.40
2022-08-24T06:16:30.375Z,5.22
2022-08-24T06:19:33.025Z,4.43
2022-08-24T06:22:34.803Z,5.47
2022-08-24T06:25:58.891Z,5.38
2022-08-24T06:29:00.680Z,4.63
2022-08-24T06:32:03.232Z,5.28
2022-08-24T06:35:06.208Z,5.30
2022-08-24T06:38:13.553Z,5.97
2022-08-24T06:41:15.499Z,6.07
2022-08-24T06:44:17.305Z,5.70
2022-08-24T06:47:26.411Z,5.75
2022-08-24T06:50:33.402Z,6.45
2022-08-24T06:53:35.828Z,5.95
2022-08-24T06:56:39.103Z,5.93
2022-08-24T06:59:43.000Z,6.63
2022-08-24T07:02:44.884Z,5.97
2022-08-24T07:05:55.364Z,6.10
2022-08-24T07:09:16.169Z,6.20
2022-08-24T07:12:18.030Z,5.82
2022-08-24T07:15:19.927Z,5.85
2022-08-24T07:18:33.126Z,5.90
2022-08-24T07:21:37.145Z,5.57
2022-08-24T07:24:40.587Z,5.25
2022-08-24T07:27:42.380Z,5.97
2022-08-24T07:30:44.894Z,5.18
2022-08-24T07:33:48.695Z,5.20
2022-08-24T07:36:52.155Z,4.95
2022-08-24T07:39:54.460Z,4.97
2022-08-24T07:42:58.111Z,5.20
2022-08-24T07:46:00.306Z,4.80
2022-08-24T07:49:11.361Z,4.20
2022-08-24T07:52:21.675Z,4.50
2022-08-24T07:55:23.445Z,3.80
2022-08-24T07:58:25.325Z,4.05
2022-08-24T08:01:27.317Z,4.45
2022-08-24T08:04:29.453Z,3.63
2022-08-24T08:07:32.018Z,3.58
2022-08-24T08:10:36.066Z,3.78
2022-08-24T08:16:46.772Z,4.20
2022-08-24T08:19:48.894Z,4.00
2022-08-24T08:23:09.874Z,3.50
2022-08-24T08:26:30.379Z,3.92
2022-08-24T08:29:40.520Z,4.15
2022-08-24T08:32:42.666Z,3.78
2022-08-24T08:35:44.684Z,4.32
2022-08-24T08:38:46.674Z,4.00
2022-08-24T08:42:14.851Z,3.03
2022-08-24T08:45:17.052Z,3.28
2022-08-24T08:48:49.293Z,3.33
2022-08-24T08:51:51.278Z,3.00
2022-08-24T08:55:11.581Z,3.00
2022-08-24T08:58:35.538Z,2.50
2022-08-24T09:01:49.329Z,2.80
2022-08-24T09:06:04.821Z,2.45
2022-08-24T09:09:34.763Z,2.00
2022-08-24T09:12:43.587Z,1.23
2022-08-24T09:16:16.631Z,1.88
2022-08-24T09:19:49.970Z,1.55
2022-08-24T09:23:19.464Z,2.03
2022-08-24T09:26:27.245Z,1.30
2022-08-24T09:29:36.471Z,1.30
2022-08-24T09:33:15.667Z,1.58
2022-08-24T09:36:40.149Z,1.50
2022-08-24T09:40:17.538Z,1.48
2022-08-24T09:43:42.165Z,1.55
2022-08-24T09:47:01.732Z,1.00
2022-08-24T09:50:46.650Z,1.40
2022-08-24T09:54:14.829Z,1.10
2022-08-24T09:57:59.868Z,1.00
2022-08-24T10:01:11.205Z,1.58
2022-08-24T10:04:50.485Z,1.42
2022-08-24T10:08:19.220Z,1.27
2022-08-24T10:11:39.124Z,0.95
2022-08-24T10:15:10.905Z,0.95
2022-08-24T10:18:30.325Z,1.10
2022-08-24T10:21:52.500Z,1.00
2022-08-24T10:25:06.473Z,1.20
2022-08-24T10:28:37.562Z,1.38
2022-08-24T10:31:55.884Z,1.00
2022-08-24T10:35:12.425Z,0.98
2022-08-24T10:39:04.083Z,1.15
2022-08-24T10:42:48.519Z,0.90
2022-08-24T10:46:43.454Z,1.00
2022-08-24T10:49:45.112Z,0.82
2022-08-24T10:53:14.370Z,0.80
2022-08-24T10:56:29.857Z,0.98
2022-08-24T10:59:47.200Z,1.00
2022-08-24T11:03:06.302Z,1.00
2022-08-24T11:06:15.443Z,0.93
2022-08-24T11:09:19.848Z,0.95
2022-08-24T11:12:30.842Z,0.80
2022-08-24T11:15:32.767Z,1.20
2022-08-24T11:18:56.047Z,1.08
2022-08-24T11:22:05.155Z,1.52
2022-08-24T11:25:29.941Z,1.05
2022-08-24T11:28:46.707Z,1.10
2022-08-24T11:31:51.114Z,0.80
2022-08-24T11:34:52.907Z,1.10
2022-08-24T11:38:03.069Z,1.00
2022-08-24T11:41:15.997Z,0.95
2022-08-24T11:44:31.812Z,1.25
2022-08-24T11:47:39.508Z,1.02
2022-08-24T11:51:04.993Z,1.00
2022-08-24T11:54:34.604Z,0.95
2022-08-24T11:57:50.931Z,1.10
2022-08-24T12:01:04.435Z,0.98
2022-08-24T12:04:18.191Z,0.88
2022-08-24T12:07:44.845Z,1.05
2022-08-24T12:11:32.806Z,1.15
2022-08-24T12:14:43.573Z,1.35
2022-08-24T12:17:54.547Z,1.20
2022-08-24T12:20:57.814Z,1.10
2022-08-24T12:24:08.754Z,1.25
2022-08-24T12:27:16.115Z,1.00
2022-08-24T12:30:18.704Z,1.20
2022-08-24T12:33:29.097Z,1.90
2022-08-24T12:36:33.509Z,0.95
2022-08-24T12:39:41.196Z,0.80
2022-08-24T12:42:54.680Z,0.80
2022-08-24T12:45:59.845Z,1.38
2022-08-24T12:49:11.849Z,1.10
2022-08-24T12:52:42.806Z,1.00
2022-08-24T12:55:55.317Z,1.08
2022-08-24T12:59:14.337Z,0.98
2022-08-24T13:02:18.866Z,0.90
2022-08-24T13:05:21.583Z,0.90
2022-08-24T13:08:36.176Z,0.90
2022-08-24T13:11:38.881Z,1.33
2022-08-24T13:14:49.305Z,1.17
2022-08-24T13:18:03.245Z,0.93
2022-08-24T13:21:16.655Z,0.80
2022-08-24T13:24:30.649Z,1.10
2022-08-24T13:27:35.769Z,1.25
2022-08-24T13:30:57.775Z,1.25
2022-08-24T13:34:21.792Z,1.15
2022-08-24T13:37:26.052Z,0.82
2022-08-24T13:40:28.339Z,1.20
2022-08-24T13:43:43.550Z,1.23
2022-08-24T13:47:25.425Z,0.98
2022-08-24T13:50:33.092Z,0.80
2022-08-24T13:53:41.844Z,1.00
2022-08-24T13:57:02.966Z,0.98
2022-08-24T14:00:17.881Z,1.02
2022-08-24T14:03:26.569Z,1.00
2022-08-24T14:06:49.555Z,1.13
2022-08-24T14:10:09.708Z,1.08
2022-08-24T14:13:32.227Z,0.95
2022-08-24T14:17:07.653Z,0.90
2022-08-24T14:20:24.094Z,0.90
2022-08-24T14:24:03.313Z,1.05
2022-08-24T14:27:12.120Z,1.13
2022-08-24T14:30:34.141Z,1.00
2022-08-24T14:33:47.372Z,0.77
2022-08-24T14:36:53.810Z,1.05
2022-08-24T14:40:37.724Z,0.80
2022-08-24T14:43:57.982Z,1.00
2022-08-24T14:47:06.914Z,0.88
2022-08-24T14:50:22.056Z,0.85
2022-08-24T14:53:35.849Z,1.00
2022-08-24T14:57:19.460Z,1.42
2022-08-24T15:00:34.230Z,0.70
2022-08-24T15:03:48.113Z,1.23
2022-08-24T15:06:53.819Z,0.80
2022-08-24T15:09:56.827Z,0.90
2022-08-24T15:13:04.069Z,0.90
2022-08-24T15:16:10.790Z,0.90
2022-08-24T15:19:27.258Z,1.20
2022-08-24T15:22:40.106Z,1.13
2022-08-24T15:25:51.494Z,1.13
2022-08-24T15:28:56.414Z,1.10
2022-08-24T15:32:06.536Z,1.00
2022-08-24T15:35:08.420Z,1.10
2022-08-24T15:38:40.269Z,1.05
2022-08-24T15:41:42.928Z,0.85
2022-08-24T15:44:48.882Z,1.00
2022-08-24T15:47:52.999Z,0.70
2022-08-24T15:50:55.868Z,1.00
2022-08-24T15:53:57.969Z,1.23
2022-08-24T15:57:11.126Z,1.10
2022-08-24T16:00:43.780Z,0.90
2022-08-24T16:03:47.881Z,0.90
2022-08-24T16:06:49.731Z,1.10
2022-08-24T16:10:12.799Z,1.10
2022-08-24T16:13:17.592Z,0.80
2022-08-24T16:16:32.816Z,0.90
2022-08-24T16:19:35.279Z,1.13
2022-08-24T16:22:40.242Z,1.45
2022-08-24T16:25:49.211Z,0.98
2022-08-24T16:28:53.977Z,1.30
2022-08-24T16:32:21.399Z,2.40
2022-08-24T16:35:32.688Z,1.90
2022-08-24T16:38:35.947Z,1.38
2022-08-24T16:41:39.956Z,1.38
2022-08-24T16:44:43.185Z,1.08
2022-08-24T16:47:46.875Z,1.17
2022-08-24T16:50:51.081Z,0.93
2022-08-24T16:53:53.703Z,1.00
2022-08-24T16:57:01.550Z,0.65
2022-08-24T17:00:15.219Z,1.20
2022-08-24T17:03:17.157Z,0.80
2022-08-24T17:06:20.821Z,1.02
2022-08-24T17:09:22.646Z,0.85
2022-08-24T17:12:24.793Z,0.82
2022-08-24T17:15:26.612Z,1.23
2022-08-24T17:18:28.943Z,0.70
2022-08-24T17:21:33.199Z,1.08
2022-08-24T17:24:35.245Z,0.90
2022-08-24T17:27:37.599Z,1.13
2022-08-24T17:30:41.741Z,0.98
2022-08-24T17:33:43.483Z,1.05
2022-08-24T17:36:45.523Z,1.38
2022-08-24T17:39:53.600Z,2.03
2022-08-24T17:42:57.300Z,1.90
2022-08-24T17:45:59.783Z,1.30
2022-08-24T17:49:01.725Z,1.52
2022-08-24T17:52:03.625Z,1.90
2022-08-24T17:55:06.899Z,1.45
2022-08-24T17:58:08.998Z,1.05
2022-08-24T18:01:10.736Z,1.60
2022-08-24T18:04:12.644Z,1.75
2022-08-24T18:07:35.932Z,2.75
2022-08-24T18:10:41.765Z,1.33
2022-08-24T18:13:43.765Z,1.17
2022-08-24T18:16:54.188Z,1.27
2022-08-24T18:19:59.035Z,1.33
2022-08-24T18:23:00.835Z,1.55
2022-08-24T18:26:02.908Z,1.40
2022-08-24T18:29:14.965Z,1.33
2022-08-24T18:32:17.716Z,1.02
2022-08-24T18:35:20.464Z,1.63
2022-08-24T18:38:22.331Z,1.42
2022-08-24T18:41:27.520Z,1.05
2022-08-24T18:44:31.725Z,0.95
2022-08-24T18:47:33.987Z,1.45
2022-08-24T18:50:40.146Z,1.30
2022-08-24T18:53:43.729Z,1.10
2022-08-24T18:56:45.530Z,1.40
2022-08-24T18:59:47.356Z,1.40
2022-08-24T19:02:49.289Z,1.30
2022-08-24T19:05:51.003Z,1.48
2022-08-24T19:08:52.725Z,1.48
2022-08-24T19:11:54.491Z,1.40
2022-08-24T19:14:59.546Z,1.73
2022-08-24T19:18:01.659Z,1.50
2022-08-24T19:21:03.471Z,1.27
2022-08-24T19:24:06.953Z,2.08
2022-08-24T19:27:08.856Z,1.73
2022-08-24T19:30:12.893Z,1.80
2022-08-24T19:33:26.177Z,1.80
2022-08-24T19:36:29.043Z,1.70
2022-08-24T19:39:31.774Z,2.33
2022-08-24T19:42:33.881Z,1.70
2022-08-24T19:45:55.225Z,1.70
2022-08-24T19:48:56.969Z,1.38
2022-08-24T19:52:01.017Z,1.42
2022-08-24T19:55:03.627Z,2.10
2022-08-24T19:58:15.638Z,1.85
2022-08-24T20:01:20.922Z,1.67
2022-08-24T20:04:22.695Z,1.85
2022-08-24T20:07:24.433Z,1.77
2022-08-24T20:10:26.751Z,1.70
2022-08-24T20:13:28.577Z,2.30
2022-08-24T20:16:43.969Z,1.63
2022-08-24T20:19:45.788Z,1.83
2022-08-24T20:22:47.717Z,1.83
2022-08-24T20:25:49.808Z,1.58
2022-08-24T20:28:52.813Z,2.17
2022-08-24T20:31:57.037Z,1.77
2022-08-24T20:35:00.959Z,1.80
2022-08-24T20:38:03.017Z,1.92
2022-08-24T20:41:04.952Z,1.90
2022-08-24T20:44:09.103Z,1.73
2022-08-24T20:47:12.695Z,1.90
2022-08-24T20:50:20.436Z,2.00
2022-08-24T20:53:22.373Z,1.70
2022-08-24T20:56:31.259Z,1.90
2022-08-24T20:59:34.803Z,1.83
2022-08-24T21:02:36.604Z,2.00
2022-08-24T21:05:39.039Z,2.15
2022-08-24T21:08:43.051Z,2.25
2022-08-24T21:11:46.217Z,1.60
2022-08-24T21:14:47.952Z,2.33
2022-08-24T21:17:53.580Z,2.38
2022-08-24T21:21:04.329Z,1.65
2022-08-24T21:24:07.713Z,2.20
2022-08-24T21:27:10.084Z,1.45
2022-08-24T21:30:15.970Z,2.20
2022-08-24T21:33:36.188Z,2.30
2022-08-24T21:36:38.611Z,1.77
2022-08-24T21:39:41.621Z,2.35
2022-08-24T21:42:43.381Z,2.17
2022-08-24T21:45:45.567Z,2.50
2022-08-24T21:48:47.843Z,1.98
2022-08-24T21:51:50.032Z,2.08
2022-08-24T21:54:52.692Z,2.35
2022-08-24T21:57:54.413Z,2.40
2022-08-24T22:00:59.241Z,1.85
2022-08-24T22:04:01.779Z,2.03
2022-08-24T22:07:04.705Z,1.98
2022-08-24T22:10:08.041Z,1.83
2022-08-24T22:13:10.242Z,1.90
2022-08-24T22:16:13.232Z,2.10
2022-08-24T22:19:16.476Z,2.38
2022-08-24T22:22:18.216Z,2.28
2022-08-24T22:25:19.983Z,1.98
2022-08-24T22:28:21.740Z,2.60
2022-08-24T22:31:27.642Z,2.10
2022-08-24T22:34:29.753Z,2.13
2022-08-24T22:37:32.639Z,2.35
2022-08-24T22:40:34.537Z,1.90
2022-08-24T22:43:55.415Z,1.77
2022-08-24T22:47:01.695Z,1.88
2022-08-24T22:50:04.969Z,1.77
2022-08-24T22:53:06.935Z,2.10
2022-08-24T22:56:24.865Z,1.90
2022-08-24T22:59:31.603Z,1.80
2022-08-24T23:02:33.343Z,1.80
2022-08-24T23:05:35.321Z,2.08
2022-08-24T23:08:37.041Z,2.03
2022-08-24T23:11:39.028Z,1.95
2022-08-24T23:14:41.625Z,2.25
2022-08-24T23:17:43.344Z,2.13
2022-08-24T23:20:45.853Z,1.90
2022-08-24T23:23:48.881Z,1.65
2022-08-24T23:26:52.207Z,1.90
2022-08-24T23:29:54.739Z,2.03
2022-08-24T23:32:56.448Z,1.95
2022-08-24T23:35:58.202Z,2.22
2022-08-24T23:39:03.707Z,1.92
2022-08-24T23:42:06.200Z,1.67
2022-08-24T23:45:11.185Z,2.00
2022-08-24T23:48:13.969Z,1.77
2022-08-24T23:51:17.673Z,2.03
2022-08-24T23:54:20.540Z,2.03
2022-08-24T23:57:22.324Z,2.28
